Ship Status Report: callsign AMOUK35

sailwx.info

Track history (hours):
 
Tides and Currents Weather Stations Pressure Air Temp Water Temp Dewpoint Dewpoint Depression Visibility Wind Speed Wind Dir Waves Ship Positions

Callsign AMOUK35 (name unknown)

Last reported at 2015-May-24 04:00 UTC. Time now 2015-May-24 07:16 UTC.
Position N 56°30' W 005°42'.

Barometer 1015.6 mb
Air temperature 9.1 ° C
Dewpoint 5.8 ° C

Date/timePositionNaut miles runAvg speedWind from/ knotsBaromVisibWave heightAir tempDewpointWater temp
2015-May-24 04:00N 56°30' W 005°42'0 0.0 1015.6 9.1 5.8
2015-May-24 02:00N 56°30' W 005°42'0 0.0 1015.9 8.8 6.2
2015-May-23 20:00N 56°30' W 005°42'9 4.5 1016.2 10.6 9.5
2015-May-23 18:00N 56°24' W 005°30'0 0.0 1019.2 11.4 8.9
2015-May-23 15:00N 56°24' W 005°30'0 0.0 1021.9 11.2 7.1
2015-May-23 14:00N 56°24' W 005°30'0 0.0 1022.9 13.7 7.3
2015-May-23 10:00N 56°24' W 005°30'0 0.0 1025.3 9.9 5.5
2015-May-23 08:00N 56°24' W 005°30'15 1.1 1026.1 8.3 5.2
2015-May-22 19:00N 56°30' W 005°54'1413.7 1025.8 10.9 6.1
2015-May-22 18:00N 56°42' W 006°06'9 2.2 1025.5 10.1 6.9
2015-May-22 14:00N 56°36' W 005°54'18 8.9 1023.5 10.3 5.7
2015-May-22 12:00N 56°24' W 005°30'0 0.0 1022.0 11.4 7.2
2015-May-22 11:00N 56°24' W 005°30'0 0.0 1021.6 10.0 6.7
2015-May-22 10:00N 56°24' W 005°30'0 0.0 1020.9 11.910.0
2015-May-22 09:00N 56°24' W 005°30'0 0.0 1020.8 11.1 9.8
2015-May-22 08:00N 56°24' W 005°30'0 0.0 1020.2 10.5 9.3
2015-May-22 06:00N 56°24' W 005°30'0 0.0 1019.9 10.3 9.1
2015-May-22 02:00N 56°24' W 005°30'0 0.0 1020.6 10.5 9.4
2015-May-21 23:00N 56°24' W 005°30'0 0.0 1020.5 10.2 9.1
2015-May-21 20:00N 56°24' W 005°30'0 0.0 1020.2 10.5 9.4
2015-May-21 18:00N 56°24' W 005°30'0 0.0 1020.5 10.8 9.5
2015-May-21 16:00N 56°24' W 005°30'0 0.0 1021.2 10.5 9.0
2015-May-21 15:00N 56°24' W 005°30'0 0.0 1021.2 10.5 8.9
2015-May-21 13:00N 56°24' W 005°30'0 0.0 1021.5 9.8 7.9
2015-May-21 10:00N 56°24' W 005°30'0 0.0 1021.1 10.8 8.0
2015-May-21 07:00N 56°24' W 005°30'0 0.0 1019.7 9.1 7.5
2015-May-20 21:00N 56°24' W 005°30'0 0.0 1019.6 9.9 7.2
2015-May-20 17:00N 56°24' W 005°30'0 0.0 1018.3 10.7 6.9
2015-May-20 15:00N 56°24' W 005°30'0 0.0 1017.7 12.3 6.1
2015-May-20 13:00N 56°24' W 005°30'0 0.0 1016.9 10.5 5.3
2015-May-20 09:00N 56°24' W 005°30'0 0.0 1014.2 9.7 6.0
2015-May-20 07:00N 56°24' W 005°30'0 0.0 1012.6 9.2 3.9
2015-May-20 05:00N 56°24' W 005°30'0 0.0 1010.9 8.7 6.4
2015-May-20 03:00N 56°24' W 005°30'0 0.0 1009.7 8.4 5.3
2015-May-20 00:00N 56°24' W 005°30'0 0.0 1008.1 8.8 5.7
2015-May-19 23:00N 56°24' W 005°30'0 0.0 1007.4 8.9 5.4
2015-May-19 19:00N 56°24' W 005°30'18 8.9 1003.7 9.4 5.0
2015-May-19 17:00N 56°36' W 005°54'2010.2 1002.9 9.8 3.7
2015-May-19 15:00N 56°48' W 006°24'7 6.8 1002.9 9.3 4.5
2015-May-19 14:00N 56°54' W 006°30'1413.7 1002.3 9.6 4.2
2015-May-19 13:00N 57°06' W 006°42'19 9.6 1001.9 9.5 4.3
2015-May-19 11:00N 57°24' W 006°54'19 9.6 1000.6 8.5 4.4
2015-May-19 09:00N 57°42' W 007°06'3 3.2 999.1 9.9 4.6
2015-May-19 08:00N 57°42' W 007°00'0 0.0 998.7 8.1 3.8
2015-May-19 06:00N 57°42' W 007°00'0 0.0 998.0 7.3 4.0
2015-May-19 05:00N 57°42' W 007°00'0 0.0 997.6 6.8 3.4
2015-May-19 04:00N 57°42' W 007°00'0 0.0 997.3 6.2 3.2
2015-May-19 03:00N 57°42' W 007°00'0 0.0 997.3 6.2 3.0
2015-May-19 02:00N 57°42' W 007°00'0 0.0 997.2 6.5 3.6
2015-May-19 01:00N 57°42' W 007°00'0 0.0 997.2 7.8 3.6
2015-May-19 00:00N 57°42' W 007°00'0 0.0 996.8 6.8 3.8
2015-May-18 23:00N 57°42' W 007°00'0 0.0 996.5 7.0 3.9
2015-May-18 22:00N 57°42' W 007°00'0 0.0 996.3 7.6 4.2
2015-May-18 21:00N 57°42' W 007°00'0 0.0 995.9 8.0 4.0
2015-May-18 20:00N 57°42' W 007°00'0 0.0 995.5 7.7 3.8
2015-May-18 19:00N 57°42' W 007°00'0 0.0 995.3 8.8 3.7
2015-May-18 18:00N 57°42' W 007°00'0 0.0 995.0 7.8 3.8
2015-May-18 17:00N 57°42' W 007°00'1212.4 995.0 6.8 3.5
2015-May-18 16:00N 57°30' W 006°54'7 6.8 994.8 9.2 4.5
2015-May-18 15:00N 57°24' W 006°48'1212.0 995.1 9.4 5.0
2015-May-18 14:00N 57°12' W 006°48'1212.4 995.5 9.7 4.8
2015-May-18 13:00N 57°00' W 006°42'9 8.9 995.9 9.6 4.6
2015-May-18 12:00N 56°54' W 006°30'9 8.9 996.4 9.4 4.9
2015-May-18 11:00N 56°48' W 006°18'9 8.9 997.0 7.1 3.6
2015-May-18 10:00N 56°42' W 006°06'1413.7 997.4 8.2 4.1
2015-May-18 09:00N 56°30' W 005°54'7 6.6 998.2 6.6 3.0
2015-May-18 08:00N 56°30' W 005°42'9 8.9 998.2 5.8 2.8
2015-May-18 07:00N 56°24' W 005°30'0 0.0 999.2 6.2 4.4
2015-May-17 20:00N 56°24' W 005°30'0 0.0 1010.2 8.3 6.2
2015-May-17 19:00N 56°24' W 005°30'0 0.0 1011.1 8.6 6.5
2015-May-17 17:00N 56°24' W 005°30'0 0.0 1012.7 7.6 5.3
2015-May-17 14:00N 56°24' W 005°30'0 0.0 1015.7 11.2 5.1
2015-May-17 11:00N 56°24' W 005°30'0 0.0 1016.6 10.0 5.0
2015-May-17 10:00N 56°24' W 005°30'0 0.0 1016.9 9.3 3.7
2015-May-17 09:00N 56°24' W 005°30'0 0.0 1017.2 8.2 4.4
2015-May-17 01:00N 56°24' W 005°30'0 0.0 1018.7 8.8 5.1
2015-May-16 19:00N 56°24' W 005°30'0 0.0 1020.4 9.1 4.2
2015-May-16 17:00N 56°24' W 005°30'0 0.0 1020.6 9.3 4.5
2015-May-16 16:00N 56°24' W 005°30'0 0.0 1020.7 9.4 3.2
2015-May-16 15:00N 56°24' W 005°30'0 0.0 1020.4 9.3 4.2
2015-May-16 14:00N 56°24' W 005°30'0 0.0 1020.2 9.7 4.3
2015-May-16 08:00N 56°24' W 005°30'0 0.0 1018.0 9.0 3.5
2015-May-16 07:00N 56°24' W 005°30'0 0.0 1017.3 7.9 4.4
2015-May-16 06:00N 56°24' W 005°30'0 0.0 1016.4 8.1 4.2
2015-May-16 05:00N 56°24' W 005°30'0 0.0 1016.0 8.0 3.7
2015-May-16 04:00N 56°24' W 005°30'0 0.0 1015.4 7.8 3.8
2015-May-16 00:00N 56°24' W 005°30'0 0.0 1014.4 9.2 5.3
2015-May-15 23:00N 56°24' W 005°30'0 0.0 1014.1 9.6 5.4
2015-May-15 19:00N 56°24' W 005°30'0 0.0 1011.6 10.9 9.5
2015-May-15 18:00N 56°24' W 005°30'0 0.0 1011.4 11.4 9.8
2015-May-15 17:00N 56°24' W 005°30'0 0.0 1011.5 11.6 9.7
2015-May-15 16:00N 56°24' W 005°30'3 1.7 1011.9 11.2 9.1
2015-May-15 14:00N 56°24' W 005°36'9 8.9 1012.8 9.7 7.1
2015-May-15 13:00N 56°30' W 005°48'22 7.4 1013.2 10.2 6.0
2015-May-15 10:00N 56°48' W 006°12'6 6.0 1014.6 10.6 5.0
2015-May-15 09:00N 56°54' W 006°12'18 6.1 1015.2 9.7 5.1
2015-May-15 06:00N 57°12' W 006°18'0 0.0 1016.8 8.6 4.6
2015-May-15 05:00N 57°12' W 006°18'0 0.0 1016.9 8.5 4.5
2015-May-15 04:00N 57°12' W 006°18'0 0.0 1017.2 8.1 4.6
2015-May-15 02:00N 57°12' W 006°18'0 0.0 1017.9 9.3 4.5
2015-May-15 00:00N 57°12' W 006°18'27 3.4 1017.7 10.7 4.7
2015-May-14 16:00N 57°36' W 006°42'9 8.8 1015.8 10.9 6.6
2015-May-14 15:00N 57°42' W 006°30'6 6.4 1015.9 9.7 6.0
2015-May-14 14:00N 57°42' W 006°18'6 6.0 1015.9 9.5 5.8
2015-May-14 13:00N 57°48' W 006°18'9 8.8 1016.3 9.8 5.5
2015-May-14 12:00N 57°54' W 006°06'1111.3 1016.6 9.2 5.7
2015-May-14 11:00N 58°00' W 005°48'1413.6 1016.8 8.9 4.5
2015-May-14 10:00N 58°12' W 005°36'9 8.7 1016.9 9.6 4.6
2015-May-14 09:00N 58°18' W 005°24'9 8.7 1017.0 9.3 3.6
2015-May-14 08:00N 58°24' W 005°12'7 6.8 1017.0 8.8 2.8
2015-May-14 07:00N 58°30' W 005°06'0 0.0 1017.0 7.1 0.9
2015-May-14 06:00N 58°30' W 005°06'0 0.0 1017.3 6.0 1.3
2015-May-14 05:00N 58°30' W 005°06'0 0.0 1017.4 4.3 0.7
2015-May-14 04:00N 58°30' W 005°06'   1017.5 4.9 0.8
Track history (hours):
 
Tides and Currents Weather Stations Pressure Air Temp Water Temp Dewpoint Dewpoint Depression Visibility Wind Speed Wind Dir Waves Ship Positions

Callsign AMOUK35 (name unknown)

Last reported at 2015-May-24 04:00 UTC. Time now 2015-May-24 07:16 UTC.
Position N 56°30' W 005°42'.

Barometer 1015.6 mb
Air temperature 9.1 ° C
Dewpoint 5.8 ° C

Date/timePositionNaut miles runAvg speedWind from/ knotsBaromVisibWave heightAir tempDewpointWater temp
2015-May-24 04:00N 56°30' W 005°42'0 0.0 1015.6 9.1 5.8
2015-May-24 02:00N 56°30' W 005°42'0 0.0 1015.9 8.8 6.2
2015-May-23 20:00N 56°30' W 005°42'9 4.5 1016.2 10.6 9.5
2015-May-23 18:00N 56°24' W 005°30'0 0.0 1019.2 11.4 8.9
2015-May-23 15:00N 56°24' W 005°30'0 0.0 1021.9 11.2 7.1
2015-May-23 14:00N 56°24' W 005°30'0 0.0 1022.9 13.7 7.3
2015-May-23 10:00N 56°24' W 005°30'0 0.0 1025.3 9.9 5.5
2015-May-23 08:00N 56°24' W 005°30'15 1.1 1026.1 8.3 5.2
2015-May-22 19:00N 56°30' W 005°54'1413.7 1025.8 10.9 6.1
2015-May-22 18:00N 56°42' W 006°06'9 2.2 1025.5 10.1 6.9
2015-May-22 14:00N 56°36' W 005°54'18 8.9 1023.5 10.3 5.7
2015-May-22 12:00N 56°24' W 005°30'0 0.0 1022.0 11.4 7.2
2015-May-22 11:00N 56°24' W 005°30'0 0.0 1021.6 10.0 6.7
2015-May-22 10:00N 56°24' W 005°30'0 0.0 1020.9 11.910.0
2015-May-22 09:00N 56°24' W 005°30'0 0.0 1020.8 11.1 9.8
2015-May-22 08:00N 56°24' W 005°30'0 0.0 1020.2 10.5 9.3
2015-May-22 06:00N 56°24' W 005°30'0 0.0 1019.9 10.3 9.1
2015-May-22 02:00N 56°24' W 005°30'0 0.0 1020.6 10.5 9.4
2015-May-21 23:00N 56°24' W 005°30'0 0.0 1020.5 10.2 9.1
2015-May-21 20:00N 56°24' W 005°30'0 0.0 1020.2 10.5 9.4
2015-May-21 18:00N 56°24' W 005°30'0 0.0 1020.5 10.8 9.5
2015-May-21 16:00N 56°24' W 005°30'0 0.0 1021.2 10.5 9.0
2015-May-21 15:00N 56°24' W 005°30'0 0.0 1021.2 10.5 8.9
2015-May-21 13:00N 56°24' W 005°30'0 0.0 1021.5 9.8 7.9
2015-May-21 10:00N 56°24' W 005°30'0 0.0 1021.1 10.8 8.0
2015-May-21 07:00N 56°24' W 005°30'0 0.0 1019.7 9.1 7.5
2015-May-20 21:00N 56°24' W 005°30'0 0.0 1019.6 9.9 7.2
2015-May-20 17:00N 56°24' W 005°30'0 0.0 1018.3 10.7 6.9
2015-May-20 15:00N 56°24' W 005°30'0 0.0 1017.7 12.3 6.1
2015-May-20 13:00N 56°24' W 005°30'0 0.0 1016.9 10.5 5.3
2015-May-20 09:00N 56°24' W 005°30'0 0.0 1014.2 9.7 6.0
2015-May-20 07:00N 56°24' W 005°30'0 0.0 1012.6 9.2 3.9
2015-May-20 05:00N 56°24' W 005°30'0 0.0 1010.9 8.7 6.4
2015-May-20 03:00N 56°24' W 005°30'0 0.0 1009.7 8.4 5.3
2015-May-20 00:00N 56°24' W 005°30'0 0.0 1008.1 8.8 5.7
2015-May-19 23:00N 56°24' W 005°30'0 0.0 1007.4 8.9 5.4
2015-May-19 19:00N 56°24' W 005°30'18 8.9 1003.7 9.4 5.0
2015-May-19 17:00N 56°36' W 005°54'2010.2 1002.9 9.8 3.7
2015-May-19 15:00N 56°48' W 006°24'7 6.8 1002.9 9.3 4.5
2015-May-19 14:00N 56°54' W 006°30'1413.7 1002.3 9.6 4.2
2015-May-19 13:00N 57°06' W 006°42'19 9.6 1001.9 9.5 4.3
2015-May-19 11:00N 57°24' W 006°54'19 9.6 1000.6 8.5 4.4
2015-May-19 09:00N 57°42' W 007°06'3 3.2 999.1 9.9 4.6
2015-May-19 08:00N 57°42' W 007°00'0 0.0 998.7 8.1 3.8
2015-May-19 06:00N 57°42' W 007°00'0 0.0 998.0 7.3 4.0
2015-May-19 05:00N 57°42' W 007°00'0 0.0 997.6 6.8 3.4
2015-May-19 04:00N 57°42' W 007°00'0 0.0 997.3 6.2 3.2
2015-May-19 03:00N 57°42' W 007°00'0 0.0 997.3 6.2 3.0
2015-May-19 02:00N 57°42' W 007°00'0 0.0 997.2 6.5 3.6
2015-May-19 01:00N 57°42' W 007°00'0 0.0 997.2 7.8 3.6
2015-May-19 00:00N 57°42' W 007°00'0 0.0 996.8 6.8 3.8
2015-May-18 23:00N 57°42' W 007°00'0 0.0 996.5 7.0 3.9
2015-May-18 22:00N 57°42' W 007°00'0 0.0 996.3 7.6 4.2
2015-May-18 21:00N 57°42' W 007°00'0 0.0 995.9 8.0 4.0
2015-May-18 20:00N 57°42' W 007°00'0 0.0 995.5 7.7 3.8
2015-May-18 19:00N 57°42' W 007°00'0 0.0 995.3 8.8 3.7
2015-May-18 18:00N 57°42' W 007°00'0 0.0 995.0 7.8 3.8
2015-May-18 17:00N 57°42' W 007°00'1212.4 995.0 6.8 3.5
2015-May-18 16:00N 57°30' W 006°54'7 6.8 994.8 9.2 4.5
2015-May-18 15:00N 57°24' W 006°48'1212.0 995.1 9.4 5.0
2015-May-18 14:00N 57°12' W 006°48'1212.4 995.5 9.7 4.8
2015-May-18 13:00N 57°00' W 006°42'9 8.9 995.9 9.6 4.6
2015-May-18 12:00N 56°54' W 006°30'9 8.9 996.4 9.4 4.9
2015-May-18 11:00N 56°48' W 006°18'9 8.9 997.0 7.1 3.6
2015-May-18 10:00N 56°42' W 006°06'1413.7 997.4 8.2 4.1
2015-May-18 09:00N 56°30' W 005°54'7 6.6 998.2 6.6 3.0
2015-May-18 08:00N 56°30' W 005°42'9 8.9 998.2 5.8 2.8
2015-May-18 07:00N 56°24' W 005°30'0 0.0 999.2 6.2 4.4
2015-May-17 20:00N 56°24' W 005°30'0 0.0 1010.2 8.3 6.2
2015-May-17 19:00N 56°24' W 005°30'0 0.0 1011.1 8.6 6.5
2015-May-17 17:00N 56°24' W 005°30'0 0.0 1012.7 7.6 5.3
2015-May-17 14:00N 56°24' W 005°30'0 0.0 1015.7 11.2 5.1
2015-May-17 11:00N 56°24' W 005°30'0 0.0 1016.6 10.0 5.0
2015-May-17 10:00N 56°24' W 005°30'0 0.0 1016.9 9.3 3.7
2015-May-17 09:00N 56°24' W 005°30'0 0.0 1017.2 8.2 4.4
2015-May-17 01:00N 56°24' W 005°30'0 0.0 1018.7 8.8 5.1
2015-May-16 19:00N 56°24' W 005°30'0 0.0 1020.4 9.1 4.2
2015-May-16 17:00N 56°24' W 005°30'0 0.0 1020.6 9.3 4.5
2015-May-16 16:00N 56°24' W 005°30'0 0.0 1020.7 9.4 3.2
2015-May-16 15:00N 56°24' W 005°30'0 0.0 1020.4 9.3 4.2
2015-May-16 14:00N 56°24' W 005°30'0 0.0 1020.2 9.7 4.3
2015-May-16 08:00N 56°24' W 005°30'0 0.0 1018.0 9.0 3.5
2015-May-16 07:00N 56°24' W 005°30'0 0.0 1017.3 7.9 4.4
2015-May-16 06:00N 56°24' W 005°30'0 0.0 1016.4 8.1 4.2
2015-May-16 05:00N 56°24' W 005°30'0 0.0 1016.0 8.0 3.7
2015-May-16 04:00N 56°24' W 005°30'0 0.0 1015.4 7.8 3.8
2015-May-16 00:00N 56°24' W 005°30'0 0.0 1014.4 9.2 5.3
2015-May-15 23:00N 56°24' W 005°30'0 0.0 1014.1 9.6 5.4
2015-May-15 19:00N 56°24' W 005°30'0 0.0 1011.6 10.9 9.5
2015-May-15 18:00N 56°24' W 005°30'0 0.0 1011.4 11.4 9.8
2015-May-15 17:00N 56°24' W 005°30'0 0.0 1011.5 11.6 9.7
2015-May-15 16:00N 56°24' W 005°30'3 1.7 1011.9 11.2 9.1
2015-May-15 14:00N 56°24' W 005°36'9 8.9 1012.8 9.7 7.1
2015-May-15 13:00N 56°30' W 005°48'22 7.4 1013.2 10.2 6.0
2015-May-15 10:00N 56°48' W 006°12'6 6.0 1014.6 10.6 5.0
2015-May-15 09:00N 56°54' W 006°12'18 6.1 1015.2 9.7 5.1
2015-May-15 06:00N 57°12' W 006°18'0 0.0 1016.8 8.6 4.6
2015-May-15 05:00N 57°12' W 006°18'0 0.0 1016.9 8.5 4.5
2015-May-15 04:00N 57°12' W 006°18'0 0.0 1017.2 8.1 4.6
2015-May-15 02:00N 57°12' W 006°18'0 0.0 1017.9 9.3 4.5
2015-May-15 00:00N 57°12' W 006°18'27 3.4 1017.7 10.7 4.7
2015-May-14 16:00N 57°36' W 006°42'9 8.8 1015.8 10.9 6.6
2015-May-14 15:00N 57°42' W 006°30'6 6.4 1015.9 9.7 6.0
2015-May-14 14:00N 57°42' W 006°18'6 6.0 1015.9 9.5 5.8
2015-May-14 13:00N 57°48' W 006°18'9 8.8 1016.3 9.8 5.5
2015-May-14 12:00N 57°54' W 006°06'1111.3 1016.6 9.2 5.7
2015-May-14 11:00N 58°00' W 005°48'1413.6 1016.8 8.9 4.5
2015-May-14 10:00N 58°12' W 005°36'9 8.7 1016.9 9.6 4.6
2015-May-14 09:00N 58°18' W 005°24'9 8.7 1017.0 9.3 3.6
2015-May-14 08:00N 58°24' W 005°12'7 6.8 1017.0 8.8 2.8
2015-May-14 07:00N 58°30' W 005°06'0 0.0 1017.0 7.1 0.9
2015-May-14 06:00N 58°30' W 005°06'0 0.0 1017.3 6.0 1.3
2015-May-14 05:00N 58°30' W 005°06'0 0.0 1017.4 4.3 0.7
2015-May-14 04:00N 58°30' W 005°06'   1017.5 4.9 0.8

Dump ship's entire track history